(°C)
18°
17°
16°
16°
15°
14°
14°
(°C)
16°
15°
14°
13°
12°
12°
11°
Z
Z
Z
ZZO
ZZO
ZZO
ZO
(km/u)
4-6
5-8
6-10
6-12
6-13
7-15
9-18
(mm)
0
0
0
0
0
0
1
(%)
4
8
12
32
52
73
90

Zonverhoging

/ -16.5°
sun-icon
UV 8
05:43
20:13
Afnemende maan (213°)
23:39
07:36

METAR voor Wilmington Manor (KILG)

Tijd Voorwaarden Temperatuur/
Dauwpunt
Wind Zicht Weer Wolken Luchtdruk Wijzigen Ruw
VFR 17.2°C / 12.2°C 160º 9kt >10km - Overcast 12000ft 1012 - KILG 190051Z 16009KT 10SM OVC120 17/12 A2989 RMK AO2 SLP121 T01720122
VFR 20°C / 7.8°C 180º 6kt >10km - Overcast 10000ft 1012 - KILG 182351Z 18006KT 10SM OVC100 20/08 A2989 RMK AO2 SLP121 T02000078 10228 20200 58021
VFR 20.6°C / 7.8°C 220º 4kt >10km - Broken Clouds 12000ft 1012 - KILG 182251Z 22004KT 10SM BKN120 21/08 A2991 RMK AO2 SLP128 T02060078
VFR 20.6°C / 7.2°C 240º 7kt >10km - Clear 1013 - KILG 182151Z 24007KT 10SM CLR 21/07 A2993 RMK AO2 SLP136 T02060072
VFR 22.2°C / 7.8°C variable 5kt >10km - Clear 1014 - KILG 182051Z VRB05KT 10SM CLR 22/08 A2995 RMK AO2 SLP142 T02220078 58016
VFR 22.2°C / 7.2°C 260º 10kt >10km. Runway 01: Visual range is variable from 853m up to more than 1829m. - Clear 1014 - KILG 181951Z 26010KT 10SM R01/2800VP6000FT CLR 22/07 A2997 RMK AO2 SLP147 T02220072
VFR 22.2°C / 5.6°C variable 3kt >10km - Clear 1015 - KILG 181851Z VRB03KT 10SM CLR 22/06 A2999 RMK AO2 SLP155 T02220056
VFR 21.1°C / 6.1°C variable 4kt >10km - Clear 1015 - KILG 181751Z VRB04KT 10SM CLR 21/06 A3000 RMK AO2 SLP158 T02110061 10222 20150 56020
VFR 21.1°C / 6.1°C >10km - Clear 1016 - KILG 181651Z 10SM CLR 21/06 A3001 RMK AO2 SLP163 T02110061
VFR 20°C / 6.7°C 300º 10kt >10km - Clear 1016 - KILG 181551Z 30010KT 10SM CLR 20/07 A3003 RMK AO2 SLP168 T02000067
VFR 18.9°C / 6.1°C 320º 10kt >10km - Clear 1017 - KILG 181451Z 32010KT 10SM CLR 19/06 A3006 RMK AO2 SLP178 T01890061 51004
VFR 17.8°C / 5.6°C 350º 7kt >10km - Clear 1017 - KILG 181351Z 35007KT 10SM CLR 18/06 A3006 RMK AO2 SLP177 T01780056
VFR 16.7°C / 6.1°C 300º 7kt >10km - Clear 1017 - KILG 181251Z 30007KT 10SM CLR 17/06 A3006 RMK AO2 SLP178 T01670061
VFR 15°C / 6.1°C 320º 8kt >10km - Clear 1017 - KILG 181151Z 32008KT 10SM CLR 15/06 A3004 RMK AO2 SLP173 T01500061 10150 20100 51015
VFR 12.8°C / 5.6°C 290º 5kt >10km - Clear 1017 - KILG 181051Z 29005KT 10SM CLR 13/06 A3004 RMK AO2 SLP171 T01280056
VFR 10°C / 4.4°C 310º 6kt >10km - Clear 1016 - KILG 180951Z AUTO 31006KT 10SM CLR 10/04 A3002 RMK AO2 SLP164 T01000044
VFR 11.1°C / 4.4°C 330º 5kt >10km - Clear 1015 - KILG 180851Z AUTO 33005KT 10SM CLR 11/04 A3000 RMK AO2 SLP158 T01110044 51013
VFR 11.7°C / 5°C 320º 4kt >10km - Clear 1015 - KILG 180751Z AUTO 32004KT 10SM CLR 12/05 A3000 RMK AO2 SLP157 T01170050
VFR 13.9°C / 4.4°C 290º 4kt >10km - Clear 1015 - KILG 180651Z AUTO 29004KT 10SM CLR 14/04 A2997 RMK AO2 SLP150 T01390044
VFR 15°C / 4.4°C variable 0kt >10km - Clear 1014 - KILG 180551Z AUTO 00000KT 10SM CLR 15/04 A2996 RMK AO2 SLP145 T01500044 10233 20144 51016
VFR 15.6°C / 5°C 20º 7kt >10km - Clear 1014 - KILG 180451Z AUTO 02007KT 10SM CLR 16/05 A2996 RMK AO2 SLP145 T01560050 402780128
VFR 16.7°C / 3.9°C 330º 7kt >10km - Clear 1013 - KILG 180351Z AUTO 33007KT 10SM CLR 17/04 A2994 RMK AO2 SLP137 T01670039
VFR 17.8°C / 4.4°C 310º 8kt >10km - Clear 1012 - KILG 180251Z AUTO 31008KT 10SM CLR 18/04 A2991 RMK AO2 SLP129 T01780044 51030
VFR 20°C / 4.4°C 310º 10kt >10km - Clear 1012 - KILG 180151Z 31010KT 10SM CLR 20/04 A2989 RMK AO2 SLP122 T02000044

VFR

17.2°C / 12.2°C

[Meer]
Wind 160º 9kt
Zicht >10km
Weer -
Wolken Overcast 12000ft
Luchtdruk 1012
Wijzigen -
Ruw KILG 190051Z 16009KT 10SM OVC120 17/12 A2989 RMK AO2 SLP121 T01720122

VFR

20°C / 7.8°C

[Meer]
Wind 180º 6kt
Zicht >10km
Weer -
Wolken Overcast 10000ft
Luchtdruk 1012
Wijzigen -
Ruw KILG 182351Z 18006KT 10SM OVC100 20/08 A2989 RMK AO2 SLP121 T02000078 10228 20200 58021

VFR

20.6°C / 7.8°C

[Meer]
Wind 220º 4kt
Zicht >10km
Weer -
Wolken Broken Clouds 12000ft
Luchtdruk 1012
Wijzigen -
Ruw KILG 182251Z 22004KT 10SM BKN120 21/08 A2991 RMK AO2 SLP128 T02060078

VFR

20.6°C / 7.2°C

[Meer]
Wind 240º 7kt
Zicht >10km
Weer -
Wolken Clear
Luchtdruk 1013
Wijzigen -
Ruw KILG 182151Z 24007KT 10SM CLR 21/07 A2993 RMK AO2 SLP136 T02060072

VFR

22.2°C / 7.8°C

[Meer]
Wind variable 5kt
Zicht >10km
Weer -
Wolken Clear
Luchtdruk 1014
Wijzigen -
Ruw KILG 182051Z VRB05KT 10SM CLR 22/08 A2995 RMK AO2 SLP142 T02220078 58016

VFR

22.2°C / 7.2°C

[Meer]
Wind 260º 10kt
Zicht >10km. Runway 01: Visual range is variable from 853m up to more than 1829m.
Weer -
Wolken Clear
Luchtdruk 1014
Wijzigen -
Ruw KILG 181951Z 26010KT 10SM R01/2800VP6000FT CLR 22/07 A2997 RMK AO2 SLP147 T02220072

VFR

22.2°C / 5.6°C

[Meer]
Wind variable 3kt
Zicht >10km
Weer -
Wolken Clear
Luchtdruk 1015
Wijzigen -
Ruw KILG 181851Z VRB03KT 10SM CLR 22/06 A2999 RMK AO2 SLP155 T02220056

VFR

21.1°C / 6.1°C

[Meer]
Wind variable 4kt
Zicht >10km
Weer -
Wolken Clear
Luchtdruk 1015
Wijzigen -
Ruw KILG 181751Z VRB04KT 10SM CLR 21/06 A3000 RMK AO2 SLP158 T02110061 10222 20150 56020

VFR

21.1°C / 6.1°C

[Meer]
Wind
Zicht >10km
Weer -
Wolken Clear
Luchtdruk 1016
Wijzigen -
Ruw KILG 181651Z 10SM CLR 21/06 A3001 RMK AO2 SLP163 T02110061

VFR

20°C / 6.7°C

[Meer]
Wind 300º 10kt
Zicht >10km
Weer -
Wolken Clear
Luchtdruk 1016
Wijzigen -
Ruw KILG 181551Z 30010KT 10SM CLR 20/07 A3003 RMK AO2 SLP168 T02000067

VFR

18.9°C / 6.1°C

[Meer]
Wind 320º 10kt
Zicht >10km
Weer -
Wolken Clear
Luchtdruk 1017
Wijzigen -
Ruw KILG 181451Z 32010KT 10SM CLR 19/06 A3006 RMK AO2 SLP178 T01890061 51004

VFR

17.8°C / 5.6°C

[Meer]
Wind 350º 7kt
Zicht >10km
Weer -
Wolken Clear
Luchtdruk 1017
Wijzigen -
Ruw KILG 181351Z 35007KT 10SM CLR 18/06 A3006 RMK AO2 SLP177 T01780056

VFR

16.7°C / 6.1°C

[Meer]
Wind 300º 7kt
Zicht >10km
Weer -
Wolken Clear
Luchtdruk 1017
Wijzigen -
Ruw KILG 181251Z 30007KT 10SM CLR 17/06 A3006 RMK AO2 SLP178 T01670061

VFR

15°C / 6.1°C

[Meer]
Wind 320º 8kt
Zicht >10km
Weer -
Wolken Clear
Luchtdruk 1017
Wijzigen -
Ruw KILG 181151Z 32008KT 10SM CLR 15/06 A3004 RMK AO2 SLP173 T01500061 10150 20100 51015

VFR

12.8°C / 5.6°C

[Meer]
Wind 290º 5kt
Zicht >10km
Weer -
Wolken Clear
Luchtdruk 1017
Wijzigen -
Ruw KILG 181051Z 29005KT 10SM CLR 13/06 A3004 RMK AO2 SLP171 T01280056

VFR

10°C / 4.4°C

[Meer]
Wind 310º 6kt
Zicht >10km
Weer -
Wolken Clear
Luchtdruk 1016
Wijzigen -
Ruw KILG 180951Z AUTO 31006KT 10SM CLR 10/04 A3002 RMK AO2 SLP164 T01000044

VFR

11.1°C / 4.4°C

[Meer]
Wind 330º 5kt
Zicht >10km
Weer -
Wolken Clear
Luchtdruk 1015
Wijzigen -
Ruw KILG 180851Z AUTO 33005KT 10SM CLR 11/04 A3000 RMK AO2 SLP158 T01110044 51013

VFR

11.7°C / 5°C

[Meer]
Wind 320º 4kt
Zicht >10km
Weer -
Wolken Clear
Luchtdruk 1015
Wijzigen -
Ruw KILG 180751Z AUTO 32004KT 10SM CLR 12/05 A3000 RMK AO2 SLP157 T01170050

VFR

13.9°C / 4.4°C

[Meer]
Wind 290º 4kt
Zicht >10km
Weer -
Wolken Clear
Luchtdruk 1015
Wijzigen -
Ruw KILG 180651Z AUTO 29004KT 10SM CLR 14/04 A2997 RMK AO2 SLP150 T01390044

VFR

15°C / 4.4°C

[Meer]
Wind variable 0kt
Zicht >10km
Weer -
Wolken Clear
Luchtdruk 1014
Wijzigen -
Ruw KILG 180551Z AUTO 00000KT 10SM CLR 15/04 A2996 RMK AO2 SLP145 T01500044 10233 20144 51016

VFR

15.6°C / 5°C

[Meer]
Wind 20º 7kt
Zicht >10km
Weer -
Wolken Clear
Luchtdruk 1014
Wijzigen -
Ruw KILG 180451Z AUTO 02007KT 10SM CLR 16/05 A2996 RMK AO2 SLP145 T01560050 402780128

VFR

16.7°C / 3.9°C

[Meer]
Wind 330º 7kt
Zicht >10km
Weer -
Wolken Clear
Luchtdruk 1013
Wijzigen -
Ruw KILG 180351Z AUTO 33007KT 10SM CLR 17/04 A2994 RMK AO2 SLP137 T01670039

VFR

17.8°C / 4.4°C

[Meer]
Wind 310º 8kt
Zicht >10km
Weer -
Wolken Clear
Luchtdruk 1012
Wijzigen -
Ruw KILG 180251Z AUTO 31008KT 10SM CLR 18/04 A2991 RMK AO2 SLP129 T01780044 51030

VFR

20°C / 4.4°C

[Meer]
Wind 310º 10kt
Zicht >10km
Weer -
Wolken Clear
Luchtdruk 1012
Wijzigen -
Ruw KILG 180151Z 31010KT 10SM CLR 20/04 A2989 RMK AO2 SLP122 T02000044

TAF voor Wilmington Manor (KILG)

From till


From till Wind 240º 5kt. Visibility 10km or more. Overcast 10000ft.
From till Wind variable 3kt. Visibility 10km or more. Overcast 5000ft.
Temporarly from till Visibility 9700m. Light Rain Mist . Overcast 3500ft.
From till Wind 130º 5kt. Visibility 6400m. Rain Mist . Overcast 2000ft.
From till Wind 130º 8kt. Visibility 3200m. Heavy Rain Mist . Overcast 1000ft.
From till Wind 160º 10kt. Visibility 9700m. Light Showers Rain Mist . Overcast 1000ft.
From till Wind 240º 5kt. Visibility 10km or more. Broken Clouds 2500ft.
From till Wind 290º 8kt. Visibility 10km or more. Broken Clouds 3500ft.

Ruw: KILG 182320Z 1900/1924 24005KT P6SM OVC100 FM190200 VRB03KT P6SM OVC050 TEMPO 1904/1906 6SM -RA BR OVC035 FM190600 13005KT 4SM RA BR OVC020 FM190700 13008KT 2SM +RA BR OVC010 FM191000 16010KT 6SM -SHRA BR OVC010 FM191300 24005KT P6SM BKN025 FM191500 29008KT P6SM BKN035 FM191800 28012KT P6SM SCT040

Radar en neerslag nowcast voor Wilmington Manor

Motregen
Licht
Matig
Zwaar
Zeer zwaar
Hagel

De locatiemarkering is op Wilmington Manor geplaatst . Deze animation toont de neerslag radar van het afgelopen uur, maar ook de 1h verwachting. Motregen of lichte sneeuwval kan onzichtbaar zijn voor de radar. De neerslagintensiteit wordt met kleuren weergegeven, van lichtblauw tot oranje.

Huidige satellietbeelden voor Wilmington Manor, Verenigde Staten

De locatiemarkering is op Wilmington Manor geplaatst. [Meer]

Het realtime satellietbeeld combineert zichtbaar licht overdag met infraroodstraling 's nachts. 's Nachts is het beeld niet donker, omdat infraroodstraling temperatuurverschillen kan waarnemen. Helaas zijn lage wolken en mist moeilijk te onderscheiden van grondtemperaturen en kunnen dus 's nachts bijna onzichtbaar zijn. Meteosat-satellietbeelden voor Europa worden elke 5 minuten in real time bijgewerkt. De beelden van GOES-16/GOES-17 (Noord- en Zuid-Amerika) en Himawari (Azië) worden om de 10 minuten bijgewerkt.

Terug naar boven